Latest Coastal Weather Observations for Esperance

IDW60701

Issued at 1:33 am WST Thursday 3 September 2026 (issued every 10 minutes, with the page automatically refreshed every 10 minutes)

About coastal observations | Map of coastal stations | Coastal observations for WA | Marine services | Other Formats
Station Details ID: 009789 Name: ESPERANCE Lat: -33.83 Lon: 121.89 Height: 25.0 m
Data from the previous 72 hours. | See also: Recent months at Esperance
Date/Time
WST
Wind Sea
Height
m
Swell Vis
km
Cloud Weather Temp
°C
Press
MSL
hPa
Rain since
9am
mm
Dir  Spd
kts
Gust
kts
Height
m
Period
s
Dir
03/01:30am NW 5 7 - - - - 10 Mostly clear - 13.0 1020.3 0.4
03/01:00am WNW 4 5 - - - - 10 Mostly clear - 13.0 1020.3 0.4
03/12:30am WNW 5 6 - - - - 10 Partly cloudy - 13.1 1020.3 0.4
03/12:00am WSW 3 4 - - - - 10 Cloudy Recent precip. 13.2 1020.1 0.4
 
Date/Time
WST
Wind Sea
Height
m
Swell Vis
km
Cloud Weather Temp
°C
Press
MSL
hPa
Rain since
9am
mm
Dir  Spd
kts
Gust
kts
Height
m
Period
s
Dir
02/11:44pm WNW 5 7 - - - - 7 Partly cloudy - 13.3 1020.5 0.4
02/11:33pm NW 6 8 - - - - 10 Mostly clear - 13.5 1020.5 0.4
02/11:30pm NW 6 8 - - - - 10 Mostly clear - 13.7 1020.5 0.4
02/11:00pm WSW 3 5 - - - - 5 Partly cloudy - 13.8 1020.6 0.2
02/10:34pm SW 1 4 - - - - 7 Mostly clear - 13.9 1020.7 0.0
02/10:30pm SW 2 5 - - - - 10 Mostly clear - 13.9 1020.9 0.0
02/10:00pm NW 4 6 - - - - 10 Mostly clear - 13.8 1020.7 0.0
02/09:30pm WNW 4 5 - - - - 10 Mostly clear - 13.7 1020.9 0.0
02/09:04pm W 4 7 - - - - 10 Mostly clear - 14.1 1021.0 0.0
02/09:00pm WNW 4 7 - - - - 10 Cloudy - 14.1 1021.0 0.0
02/08:47pm WSW 5 7 - - - - 7 Mostly clear - 14.2 1020.9 0.0
02/08:34pm SW 5 9 - - - - 10 Partly cloudy - 14.2 1020.7 0.0
02/08:30pm SW 6 9 - - - - 10 Partly cloudy - 14.1 1020.7 0.0
02/08:21pm SW 7 11 - - - - 7 Partly cloudy - 14.4 1020.6 0.0
02/08:00pm SW 7 11 - - - - 10 Mostly clear - 14.6 1020.6 0.0
02/07:30pm SW 7 11 - - - - 10 Partly cloudy - 14.9 1020.2 0.0
02/07:00pm SW 7 11 - - - - 10 Mostly clear - 14.3 1020.0 0.0
02/06:33pm SW 11 18 - - - - 10 Mostly clear - 14.3 1019.8 0.0
02/06:30pm SW 11 18 - - - - 10 Mostly clear - 14.3 1019.7 0.0
02/06:18pm WSW 9 16 - - - - 7 Mostly clear - 15.4 1019.6 0.0
02/06:00pm WSW 6 10 - - - - 10 Cloudy - 16.7 1019.3 0.0
02/05:30pm W 5 8 - - - - 10 Cloudy - 16.6 1019.0 0.0
02/05:00pm W 6 9 - - - - 10 Partly cloudy - 16.9 1018.7 0.0
02/04:30pm W 7 11 - - - - 10 Mostly clear - 17.2 1018.6 0.0
02/04:00pm W 10 16 - - - - 10 Mostly clear - 17.3 1018.4 0.0
02/03:30pm W 10 16 - - - - 10 Mostly clear - 17.7 1018.3 0.0
02/03:00pm W 11 20 - - - - 10 Cloudy - 17.2 1018.3 0.0
02/02:30pm W 10 17 - - - - 10 Cloudy - 17.0 1018.3 0.0
02/02:00pm WNW 9 14 - - - - 10 Partly cloudy - 17.5 1018.1 0.0
02/01:30pm WNW 11 17 - - - - 10 Mostly clear - 17.5 1018.3 0.0
02/01:00pm WNW 11 20 - - - - 10 Partly cloudy - 16.6 1018.6 0.0
02/12:30pm WNW 11 15 - - - - 10 Partly cloudy - 16.5 1018.9 0.0
02/12:00pm WNW 9 15 - - - - 10 Cloudy - 17.2 1018.9 0.0
02/11:30am NW 10 16 - - - - 10 Cloudy - 17.3 1019.3 0.0
02/11:00am NW 13 18 - - - - 10 Cloudy - 15.8 1019.6 0.0
02/10:30am NW 13 19 - - - - 10 Cloudy - 15.7 1019.7 0.0
02/10:00am WNW 12 19 - - - - 10 Partly cloudy - 15.4 1020.1 0.0
02/09:30am NW 12 17 - - - - 10 - - 15.7 1020.2 0.0
02/09:00am NW 10 15 - - - - 10 - - 14.2 1020.4 0.0
02/08:30am NW 11 15 - - - - 10 - - 12.8 1020.7 0.0
02/08:00am NW 10 15 - - - - 10 - - 11.8 1020.6 0.0
02/07:30am NW 9 12 - - - - 10 - - 10.6 1020.5 0.0
02/07:00am NW 9 13 - - - - 10 - - 9.7 1020.5 0.0
02/06:30am NW 9 13 - - - - 10 Mostly clear - 9.4 1020.2 0.0
02/06:00am NW 9 14 - - - - 10 Cloudy - 9.7 1020.2 0.0
02/05:30am NW 7 11 - - - - 10 Cloudy - 9.3 1020.3 0.0
02/05:00am WNW 7 11 - - - - 10 Partly cloudy - 8.4 1020.3 0.0
02/04:30am WNW 7 9 - - - - 10 - - 7.8 1020.3 0.0
02/04:00am NW 8 10 - - - - 10 - - 8.1 1020.0 0.0
02/03:30am NW 7 9 - - - - 10 - - 8.7 1020.0 0.0
02/03:00am WNW 5 7 - - - - 10 - - 9.0 1020.1 0.0
02/02:30am NW 7 9 - - - - 10 - - 8.3 1020.2 0.0
02/02:00am WNW 6 7 - - - - 10 Partly cloudy - 8.8 1020.4 0.0
02/01:30am NW 5 6 - - - - 10 Partly cloudy - 8.9 1020.7 0.0
02/01:00am NNW 5 6 - - - - 10 - - 9.0 1020.7 0.0
02/12:30am NNW 4 5 - - - - 10 - - 9.1 1021.0 0.0
02/12:00am NNW 5 5 - - - - 10 - - 9.1 1021.1 0.0
 
Date/Time
WST
Wind Sea
Height
m
Swell Vis
km
Cloud Weather Temp
°C
Press
MSL
hPa
Rain since
9am
mm
Dir  Spd
kts
Gust
kts
Height
m
Period
s
Dir
01/11:30pm N 5 6 - - - - 10 - - 9.3 1021.4 0.0
01/11:00pm N 5 6 - - - - 10 - - 9.7 1021.6 0.0
01/10:30pm N 4 5 - - - - 10 - - 10.1 1021.9 0.0
01/10:00pm N 4 5 - - - - 10 - - 10.5 1022.2 0.0
01/09:30pm NW 4 5 - - - - 10 - - 10.8 1022.5 0.0
01/09:00pm WNW 5 5 - - - - 10 - - 10.9 1022.7 0.0
01/08:30pm NW 5 5 - - - - 10 - - 11.2 1022.8 0.0
01/08:00pm WNW 5 5 - - - - 10 - - 11.5 1022.8 0.0
01/07:30pm WNW 4 5 - - - - 10 - - 12.2 1022.9 0.0
01/07:00pm WNW 4 5 - - - - 10 - - 12.6 1022.8 0.0
01/06:30pm W 4 5 - - - - 10 - - 13.3 1022.7 0.0
01/06:00pm WSW 4 6 - - - - 10 - - 13.9 1022.6 0.0
01/05:30pm WSW 4 6 - - - - 10 - - 14.4 1022.6 0.0
01/05:00pm SW 6 9 - - - - 10 - - 15.1 1022.4 0.0
01/04:30pm SW 8 12 - - - - 10 - - 15.7 1022.5 0.0
01/04:00pm SW 8 13 - - - - 10 Mostly clear - 16.0 1022.4 0.0
01/03:30pm WSW 7 12 - - - - 10 Mostly clear - 16.6 1022.3 0.0
01/03:00pm WSW 9 15 - - - - 10 Mostly clear - 16.5 1022.1 0.0
01/02:30pm SW 9 14 - - - - 10 Mostly clear - 16.8 1022.2 0.0
01/02:00pm WSW 8 14 - - - - 10 Mostly clear - 17.3 1022.2 0.0
01/01:30pm W 8 13 - - - - 10 Partly cloudy - 16.8 1022.4 0.0
01/01:00pm WSW 8 13 - - - - 10 Mostly clear - 16.6 1022.7 0.0
01/12:30pm SW 9 14 - - - - 10 Mostly clear - 16.4 1022.7 0.0
01/12:00pm WSW 8 13 - - - - 10 Mostly cloudy - 16.7 1022.9 0.0
01/11:30am WNW 8 11 - - - - 10 Mostly clear - 16.5 1023.1 0.0
01/11:00am W 8 14 - - - - 10 Mostly clear - 17.0 1023.2 0.0
01/10:30am WSW 8 13 - - - - 10 Mostly clear - 15.6 1023.3 0.0
01/10:00am WSW 6 9 - - - - 10 Partly cloudy - 15.7 1023.3 0.0
01/09:30am WNW 5 7 - - - - 10 Partly cloudy - 15.0 1023.4 0.0
01/09:00am NW 5 6 - - - - 10 Cloudy - 14.3 1023.4 0.8
01/08:30am SW 3 4 - - - - 10 Mostly clear - 13.1 1023.2 0.8
01/08:06am SW 9 14 - - - - 10 Mostly clear - 12.7 1023.1 0.8
01/08:00am SW 7 14 - - - - 8 Mostly clear - 13.0 1023.0 0.8
01/07:49am SSW 5 7 - - - - 7 Mostly clear - 13.8 1022.9 0.8
01/07:30am S 6 9 - - - - 10 Partly cloudy - 13.5 1022.8 0.6
01/07:00am SW 5 7 - - - - 10 Partly cloudy - 13.3 1022.3 0.6
01/06:30am WSW 4 7 - - - - 10 Mostly clear - 13.3 1021.8 0.6
01/06:00am WSW 5 7 - - - - 10 Mostly cloudy - 13.2 1021.6 0.6
01/05:30am SW 6 9 - - - - 10 Partly cloudy - 13.2 1021.3 0.6
01/05:00am WSW 5 8 - - - - 10 Cloudy - 13.2 1021.1 0.6
01/04:30am WSW 6 9 - - - - 10 Cloudy - 13.2 1020.8 0.6
01/04:00am SW 6 9 - - - - 10 Cloudy - 13.3 1020.5 0.6
01/03:30am SW 7 10 - - - - 10 Cloudy - 13.2 1020.6 0.6
01/03:00am SW 7 10 - - - - 10 Cloudy - 13.2 1020.7 0.6
01/02:30am SW 7 11 - - - - 10 Mostly clear - 13.2 1020.8 0.6
01/02:00am SW 7 11 - - - - 10 Mostly clear - 12.9 1021.1 0.6
01/01:30am SW 8 15 - - - - 10 Mostly clear - 12.6 1021.4 0.6
01/01:18am SW 8 14 - - - - 10 Mostly clear - 12.4 1021.4 0.6
01/01:08am SSW 13 19 - - - - 10 Mostly clear - 12.3 1021.4 0.6
01/01:00am SSW 13 19 - - - - 10 Partly cloudy - 12.3 1021.4 0.6
01/12:30am S 17 25 - - - - 6 Partly cloudy - 13.1 1020.8 0.0
01/12:27am S 17 25 - - - - 7 Partly cloudy - 13.2 1020.7 0.0
01/12:19am S 16 25 - - - - 10 Partly cloudy - 13.3 1020.4 0.0
01/12:00am S 16 27 - - - - 10 Cloudy - 13.7 1019.8 0.0
 
Date/Time
WST
Wind Sea
Height
m
Swell Vis
km
Cloud Weather Temp
°C
Press
MSL
hPa
Rain since
9am
mm
Dir  Spd
kts
Gust
kts
Height
m
Period
s
Dir
31/11:59pm S 16 26 - - - - 10 Partly cloudy - 13.8 1020.0 0.0
31/11:56pm S 15 23 - - - - 10 Partly cloudy - 13.8 1020.0 0.0
31/11:49pm S 16 22 - - - - 10 Partly cloudy - 13.8 1019.9 0.0
31/11:30pm S 16 28 - - - - 7 Partly cloudy - 14.2 1019.4 0.0
31/11:25pm S 18 28 - - - - 10 Cloudy - 14.5 1019.3 0.0
31/11:00pm S 17 25 - - - - 10 Partly cloudy - 15.5 1018.7 0.0
31/10:54pm S 17 26 - - - - 10 Partly cloudy - 15.4 1018.6 0.0
31/10:51pm S 17 26 - - - - 10 Partly cloudy - 15.4 1018.4 0.0
31/10:46pm SSW 15 26 - - - - 10 Partly cloudy - 15.5 1018.6 0.0
31/10:44pm SSW 14 23 - - - - 10 Partly cloudy - 15.6 1018.5 0.0
31/10:30pm W 7 10 - - - - 10 Partly cloudy - 15.5 1018.4 0.0
31/10:00pm WNW 5 6 - - - - 10 - - 15.2 1018.1 0.0
31/09:30pm N 4 6 - - - - 10 Partly cloudy - 15.2 1017.9 0.0
31/09:00pm NNW 5 7 - - - - 10 Partly cloudy - 15.4 1017.7 0.0
31/08:30pm N 5 7 - - - - 10 Mostly clear - 15.5 1017.7 0.0
31/08:00pm WNW 4 4 - - - - 10 - - 16.1 1017.5 0.0
31/07:30pm W 3 4 - - - - 10 Mostly clear - 16.9 1017.3 0.0
31/07:00pm SW 3 5 - - - - 10 Mostly clear - 17.1 1017.1 0.0
31/06:30pm W 3 4 - - - - 10 Mostly clear - 17.3 1016.7 0.0
31/06:00pm SSW 4 7 - - - - 10 - - 17.6 1016.1 0.0
31/05:30pm SSW 5 7 - - - - 10 - - 18.2 1015.5 0.0
31/05:00pm SSW 5 8 - - - - 10 Mostly clear - 19.1 1015.1 0.0
31/04:30pm SSW 9 14 - - - - 10 - - 19.6 1014.7 0.0
31/04:00pm SSW 11 15 - - - - 10 - - 20.6 1014.4 0.0
31/03:30pm SSW 10 14 - - - - 10 - - 21.7 1014.2 0.0
31/03:00pm SSW 9 14 - - - - 10 Partly cloudy - 23.4 1014.0 0.0
31/02:30pm NW 11 17 - - - - 10 Mostly clear - 26.7 1013.9 0.0
31/02:00pm WNW 11 16 - - - - 10 Mostly clear - 26.0 1013.8 0.0
31/01:30pm NW 13 19 - - - - 10 - - 27.1 1013.9 0.0
31/01:00pm NW 17 24 - - - - 10 - - 27.1 1014.1 0.0
31/12:30pm NW 15 21 - - - - 10 - - 27.2 1014.4 0.0
31/12:00pm NNW 14 20 - - - - 10 Mostly clear - 26.5 1014.8 0.0
31/11:30am NNW 15 21 - - - - 10 - - 25.5 1015.4 0.0
31/11:00am NNW 14 19 - - - - 10 - - 24.7 1016.0 0.0
31/10:30am NNW 13 18 - - - - 10 - - 24.1 1016.5 0.0
31/10:00am NNW 15 22 - - - - 10 - - 23.2 1017.0 0.0
31/09:30am N 17 25 - - - - 10 - - 21.9 1017.2 0.0
31/09:00am N 15 22 - - - - 10 - - 20.8 1017.6 0.0
31/08:31am N 16 23 - - - - 10 - - 19.8 1017.8 0.0
31/08:30am N 16 23 - - - - 10 - - 19.7 1017.8 0.0
31/08:19am N 17 27 - - - - 10 - - 19.2 1018.0 0.0
31/08:16am N 18 27 - - - - 10 - - 19.1 1017.9 0.0
31/08:06am N 16 26 - - - - 10 - - 18.8 1017.9 0.0
31/08:00am N 15 22 - - - - 10 - - 18.7 1018.0 0.0
31/07:30am NNW 13 18 - - - - 10 - - 17.9 1018.4 0.0
31/07:00am N 12 18 - - - - 10 - - 17.2 1018.5 0.0
31/06:30am N 16 23 - - - - 10 - - 16.6 1018.3 0.0
31/06:00am N 14 21 - - - - 10 - - 16.3 1018.1 0.0
31/05:30am N 11 15 - - - - 10 - - 15.9 1018.3 0.0
31/05:00am N 11 16 - - - - 10 - - 16.1 1018.4 0.0
31/04:30am N 13 17 - - - - 10 Partly cloudy - 16.1 1018.3 0.0
31/04:00am N 13 18 - - - - 10 Partly cloudy - 16.1 1018.6 0.0
31/03:30am N 12 19 - - - - 10 Cloudy - 16.6 1018.6 0.0
31/03:00am N 11 16 - - - - 10 Mostly cloudy - 16.9 1018.8 0.0
31/02:30am N 10 12 - - - - 10 Cloudy - 17.0 1019.2 0.0
31/02:00am N 11 15 - - - - 10 Cloudy - 17.5 1019.4 0.0

Other formats

Comma delimited format used in spreadsheet applications
http://www.bom.gov.au/fwo/IDW60701/IDW60701.94638.axf

JavaScript Object Notation format (JSON) in row-major order
http://www.bom.gov.au/fwo/IDW60701/IDW60701.94638.json

Data quality

Most of these data are generated automatically and are frequently updated. Quality checks on data are not normally performed. It is possible for incorrect values to appear. Refer to information at About Latest Weather Observations and please check the disclaimer before using these data.